createdAt,value
2022-10-06T00:01:39.322Z,98957.78
2022-10-06T00:04:42.466Z,98956.47
2022-10-06T00:07:45.666Z,98966.72
2022-10-06T00:10:48.371Z,98970.19
2022-10-06T00:13:51.371Z,98973.72
2022-10-06T00:16:55.728Z,98975.59
2022-10-06T00:19:58.643Z,98980.97
2022-10-06T00:23:01.578Z,98987.44
2022-10-06T00:26:04.484Z,98990.69
2022-10-06T00:29:07.459Z,98996.84
2022-10-06T00:32:11.907Z,98992.50
2022-10-06T00:35:14.964Z,98993.88
2022-10-06T00:38:18.346Z,98995.75
2022-10-06T00:41:24.450Z,99006.00
2022-10-06T00:44:27.358Z,99010.28
2022-10-06T00:47:34.092Z,99009.47
2022-10-06T00:50:37.665Z,99016.47
2022-10-06T00:53:41.599Z,99019.97
2022-10-06T00:56:45.400Z,99016.47
2022-10-06T00:59:48.494Z,99029.13
2022-10-06T01:02:57.827Z,99039.06
2022-10-06T01:06:02.105Z,99027.75
2022-10-06T01:09:04.999Z,99029.09
2022-10-06T01:12:09.905Z,99034.75
2022-10-06T01:15:13.433Z,99039.31
2022-10-06T01:18:21.600Z,99043.66
2022-10-06T01:21:31.962Z,99045.25
2022-10-06T01:24:37.003Z,99045.78
2022-10-06T01:27:44.202Z,99047.38
2022-10-06T01:30:52.625Z,99047.13
2022-10-06T01:33:56.268Z,99046.59
2022-10-06T01:36:59.063Z,99062.47
2022-10-06T01:40:03.186Z,99056.28
2022-10-06T01:43:06.291Z,99056.81
2022-10-06T01:46:09.109Z,99062.47
2022-10-06T01:49:12.739Z,99063.28
2022-10-06T01:52:15.831Z,99057.09
2022-10-06T01:55:20.829Z,99063.56
2022-10-06T01:58:25.077Z,99067.84
2022-10-06T02:01:28.151Z,99061.13
2022-10-06T02:04:33.783Z,99065.13
2022-10-06T02:07:37.478Z,99072.94
2022-10-06T02:10:41.722Z,99087.22
2022-10-06T02:13:44.660Z,99076.41
2022-10-06T02:16:47.565Z,99072.13
2022-10-06T02:19:50.728Z,99079.63
2022-10-06T02:22:53.855Z,99080.41
2022-10-06T02:26:02.689Z,99086.06
2022-10-06T02:29:05.806Z,99089.03
2022-10-06T02:32:08.774Z,99100.28
2022-10-06T02:35:13.565Z,99102.19
2022-10-06T02:38:16.668Z,99101.88
2022-10-06T02:41:21.236Z,99108.63
2022-10-06T02:44:25.323Z,99109.69
2022-10-06T02:47:28.316Z,99111.03
2022-10-06T02:50:31.411Z,99117.72
2022-10-06T02:53:34.493Z,99120.69
2022-10-06T02:56:38.791Z,99120.66
2022-10-06T02:59:42.922Z,99128.44
2022-10-06T03:02:46.147Z,99145.66
2022-10-06T03:05:49.534Z,99149.13
2022-10-06T03:08:53.846Z,99154.28
2022-10-06T03:11:58.033Z,99158.28
2022-10-06T03:15:01.243Z,99174.69
2022-10-06T03:18:04.178Z,99172.75
2022-10-06T03:21:07.363Z,99173.56
2022-10-06T03:24:12.425Z,99171.66
2022-10-06T03:27:16.690Z,99182.97
2022-10-06T03:30:19.471Z,99191.50
2022-10-06T03:33:22.483Z,99201.41
2022-10-06T03:36:27.067Z,99206.53
2022-10-06T03:39:29.927Z,99203.63
2022-10-06T03:42:34.095Z,99209.56
2022-10-06T03:45:37.027Z,99213.09
2022-10-06T03:48:40.180Z,99224.66
2022-10-06T03:51:43.497Z,99230.81
2022-10-06T03:54:46.219Z,99244.03
2022-10-06T03:57:53.566Z,99244.81
2022-10-06T04:01:00.984Z,99253.44
2022-10-06T04:04:05.063Z,99248.94
2022-10-06T04:07:08.054Z,99251.41
2022-10-06T04:10:11.676Z,99250.09
2022-10-06T04:13:18.406Z,99251.75
2022-10-06T04:16:22.879Z,99249.13
2022-10-06T04:19:26.107Z,99255.06
2022-10-06T04:22:28.906Z,99252.69
2022-10-06T04:25:31.883Z,99260.28
2022-10-06T04:28:37.858Z,99261.09
2022-10-06T04:31:42.505Z,99270.75
2022-10-06T04:34:46.196Z,99269.72
2022-10-06T04:37:49.850Z,99272.41
2022-10-06T04:40:53.547Z,99276.19
2022-10-06T04:43:58.841Z,99267.88
2022-10-06T04:47:01.794Z,99277.03
2022-10-06T04:50:07.539Z,99281.38
2022-10-06T04:53:10.394Z,99281.38
2022-10-06T04:56:15.799Z,99281.66
2022-10-06T04:59:19.938Z,99290.84
2022-10-06T05:02:22.936Z,99289.81
2022-10-06T05:05:25.622Z,99304.13
2022-10-06T05:08:28.851Z,99308.75
2022-10-06T05:11:33.274Z,99310.91
2022-10-06T05:14:37.999Z,99309.84
2022-10-06T05:17:41.022Z,99318.16
2022-10-06T05:20:44.366Z,99318.72
2022-10-06T05:23:47.629Z,99323.84
2022-10-06T05:26:50.324Z,99330.06
2022-10-06T05:29:54.736Z,99333.06
2022-10-06T05:32:57.523Z,99341.41
2022-10-06T05:36:02.428Z,99343.63
2022-10-06T05:39:05.508Z,99336.63
2022-10-06T05:42:08.291Z,99340.69
2022-10-06T05:45:12.621Z,99343.66
2022-10-06T05:48:15.545Z,99349.09
2022-10-06T05:51:19.842Z,99343.97
2022-10-06T05:54:23.078Z,99346.94
2022-10-06T05:57:25.934Z,99358.81
2022-10-06T06:00:30.945Z,99359.66
2022-10-06T06:03:33.653Z,99369.91
2022-10-06T06:06:40.043Z,99367.22
2022-10-06T06:09:43.136Z,99371.56
2022-10-06T06:12:47.956Z,99375.91
2022-10-06T06:16:06.105Z,99383.44
2022-10-06T06:19:12.708Z,99388.88
2022-10-06T06:22:15.591Z,99395.91
2022-10-06T06:25:18.473Z,99397.53
2022-10-06T06:28:21.608Z,99399.47
2022-10-06T06:31:28.067Z,99405.41
2022-10-06T06:34:31.138Z,99408.94
2022-10-06T06:37:35.826Z,99419.19
2022-10-06T06:40:41.744Z,99424.88
2022-10-06T06:43:45.280Z,99426.50
2022-10-06T06:46:49.732Z,99431.09
2022-10-06T06:49:52.362Z,99439.19
2022-10-06T06:52:55.173Z,99439.44
2022-10-06T06:55:58.006Z,99441.34
2022-10-06T06:59:00.640Z,99449.41
2022-10-06T07:02:04.825Z,99458.06
2022-10-06T07:05:08.500Z,99465.09
2022-10-06T07:08:11.875Z,99469.13
2022-10-06T07:11:16.157Z,99478.03
2022-10-06T07:14:23.033Z,99482.38
2022-10-06T07:17:46.105Z,99489.13
2022-10-06T07:21:07.387Z,99486.66
2022-10-06T07:24:30.281Z,99493.97
2022-10-06T07:27:38.012Z,99495.84
2022-10-06T07:30:42.931Z,99507.72
2022-10-06T07:33:49.491Z,99504.19
2022-10-06T07:53:09.024Z,99515.03
2022-10-06T07:56:16.376Z,99517.44
2022-10-06T07:59:21.655Z,99521.53
2022-10-06T08:02:30.203Z,99532.06
2022-10-06T08:05:39.681Z,99523.97
2022-10-06T08:08:50.239Z,99529.38
2022-10-06T08:11:57.985Z,99534.22
2022-10-06T08:15:07.030Z,99537.19
2022-10-06T08:18:27.528Z,99543.66
2022-10-06T08:21:40.149Z,99542.06
2022-10-06T08:25:04.820Z,99549.63
2022-10-06T08:28:10.314Z,99558.56
2022-10-06T08:31:16.467Z,99567.22
2022-10-06T08:34:22.218Z,99565.59
2022-10-06T08:37:28.907Z,99571.50
2022-10-06T08:40:34.955Z,99575.56
2022-10-06T08:43:40.149Z,99562.03
2022-10-06T08:46:56.206Z,99576.13
2022-10-06T08:50:01.437Z,99571.75
2022-10-06T08:53:19.458Z,99571.22
2022-10-06T08:56:31.103Z,99572.53
2022-10-06T08:59:38.001Z,99568.72
2022-10-06T09:02:48.143Z,99586.56
2022-10-06T09:05:55.192Z,99584.69
2022-10-06T09:09:08.500Z,99580.09
2022-10-06T09:12:21.771Z,99586.56
2022-10-06T09:15:35.581Z,99593.59
2022-10-06T09:22:21.746Z,99592.72
2022-10-06T09:25:30.118Z,99594.56
2022-10-06T09:28:35.088Z,99586.97
2022-10-06T09:31:42.710Z,99594.25
2022-10-06T09:34:52.486Z,99593.13
2022-10-06T09:37:59.183Z,99603.91
2022-10-06T09:41:06.980Z,99600.63
2022-10-06T09:57:16.633Z,99622.09
2022-10-06T10:00:28.968Z,99618.81
2022-10-06T10:04:18.942Z,99622.53
2022-10-06T10:07:25.526Z,99627.97
2022-10-06T10:10:30.649Z,99615.94
2022-10-06T10:13:45.874Z,99621.22
2022-10-06T10:16:53.399Z,99614.88
2022-10-06T10:19:59.226Z,99617.69
2022-10-06T10:23:08.185Z,99610.81
2022-10-06T10:26:28.071Z,99614.41
2022-10-06T10:29:53.704Z,99617.13
2022-10-06T10:33:05.826Z,99608.78
2022-10-06T10:36:16.370Z,99607.16
2022-10-06T10:39:31.945Z,99610.53
2022-10-06T10:42:42.061Z,99606.44
2022-10-06T10:45:52.218Z,99604.44
2022-10-06T10:49:02.563Z,99606.94
2022-10-06T10:52:14.795Z,99603.41
2022-10-06T10:55:27.771Z,99596.63
2022-10-06T10:58:37.427Z,99603.06
2022-10-06T11:01:49.232Z,99587.78
2022-10-06T11:04:58.560Z,99598.41
2022-10-06T11:08:13.001Z,99590.56
2022-10-06T11:11:26.259Z,99592.97
2022-10-06T11:14:46.322Z,99594.53
2022-10-06T11:17:51.880Z,99601.16
2022-10-06T11:21:00.918Z,99597.50
2022-10-06T11:24:15.526Z,99602.09
2022-10-06T11:27:37.873Z,99590.19
2022-10-06T11:30:54.255Z,99589.13
2022-10-06T11:34:01.300Z,99587.94
2022-10-06T11:37:17.273Z,99586.88
2022-10-06T11:40:40.029Z,99589.81
2022-10-06T11:43:50.111Z,99584.00
2022-10-06T11:46:55.441Z,99579.03
2022-10-06T11:50:00.763Z,99584.25
2022-10-06T11:53:04.580Z,99581.16
2022-10-06T11:56:38.291Z,99573.38
2022-10-06T11:59:41.426Z,99575.44
2022-10-06T12:02:46.227Z,99578.00
2022-10-06T12:05:56.144Z,99580.03
2022-10-06T12:08:59.632Z,99573.97
2022-10-06T12:12:12.699Z,99573.34
2022-10-06T12:18:56.476Z,99570.22
2022-10-06T12:22:09.720Z,99559.53
2022-10-06T12:25:20.770Z,99564.69
2022-10-06T12:28:33.916Z,99563.97
2022-10-06T12:31:47.615Z,99569.03
2022-10-06T12:35:04.327Z,99562.91
2022-10-06T12:38:44.129Z,99565.28
2022-10-06T12:41:58.808Z,99556.59
2022-10-06T12:45:01.834Z,99555.06
2022-10-06T12:48:08.049Z,99558.47
2022-10-06T12:51:24.065Z,99548.09
2022-10-06T12:54:34.889Z,99559.06
2022-10-06T12:57:46.534Z,99556.47
2022-10-06T13:00:49.358Z,99562.63
2022-10-06T13:03:53.926Z,99552.13
2022-10-06T13:06:56.682Z,99546.94
2022-10-06T13:10:19.802Z,99545.59
2022-10-06T13:13:24.571Z,99544.47
2022-10-06T13:16:33.696Z,99543.84
2022-10-06T13:19:50.156Z,99549.84
2022-10-06T13:23:02.220Z,99535.03
2022-10-06T13:26:17.014Z,99541.31
2022-10-06T13:29:28.609Z,99540.56
2022-10-06T13:32:32.149Z,99535.06
2022-10-06T13:35:34.871Z,99535.19
2022-10-06T13:38:39.116Z,99543.84
2022-10-06T13:41:46.789Z,99544.69
2022-10-06T13:44:57.442Z,99536.31
2022-10-06T13:48:08.235Z,99534.97
2022-10-06T13:51:17.424Z,99535.59
2022-10-06T13:54:26.628Z,99535.66
2022-10-06T13:57:39.156Z,99531.50
2022-10-06T14:00:51.354Z,99531.00
2022-10-06T14:19:47.002Z,99527.84
2022-10-06T14:22:49.702Z,99512.31
2022-10-06T14:25:52.367Z,99515.06
2022-10-06T14:28:55.273Z,99518.44
2022-10-06T14:32:19.427Z,99519.59
2022-10-06T14:35:36.039Z,99510.25
2022-10-06T14:38:40.410Z,99502.66
2022-10-06T14:41:43.120Z,99505.38
2022-10-06T14:44:46.061Z,99508.97
2022-10-06T14:48:00.512Z,99508.44
2022-10-06T14:51:07.262Z,99506.44
2022-10-06T14:54:21.397Z,99504.22
2022-10-06T14:57:34.533Z,99510.09
2022-10-06T15:00:43.517Z,99512.38
2022-10-06T15:04:03.416Z,99519.66
2022-10-06T15:07:23.627Z,99510.84
2022-10-06T15:10:30.690Z,99506.41
2022-10-06T15:13:37.143Z,99507.09
2022-10-06T15:16:44.538Z,99500.16
2022-10-06T15:19:58.799Z,99497.56
2022-10-06T15:23:01.645Z,99492.28
2022-10-06T15:26:21.766Z,99497.75
2022-10-06T15:29:24.853Z,99489.94
2022-10-06T15:32:27.506Z,99482.38
2022-10-06T15:35:32.953Z,99484.28
2022-10-06T15:38:37.546Z,99486.22
2022-10-06T15:41:42.756Z,99479.97
2022-10-06T15:44:45.780Z,99490.28
2022-10-06T15:47:52.796Z,99487.06
2022-10-06T15:50:58.075Z,99481.13
2022-10-06T15:54:00.720Z,99478.69
2022-10-06T15:57:05.587Z,99480.66
2022-10-06T16:00:09.250Z,99480.69
2022-10-06T16:03:25.783Z,99481.00
2022-10-06T16:06:41.563Z,99478.34
2022-10-06T16:09:46.485Z,99477.91
2022-10-06T16:12:49.143Z,99477.75
2022-10-06T16:15:54.989Z,99485.19
2022-10-06T16:18:57.723Z,99482.84
2022-10-06T16:22:02.897Z,99488.63
2022-10-06T16:25:06.230Z,99490.38
2022-10-06T16:28:08.870Z,99485.81
2022-10-06T16:31:11.534Z,99490.16
2022-10-06T16:34:15.042Z,99489.13
2022-10-06T16:37:19.050Z,99489.44
2022-10-06T16:40:22.962Z,99490.81
2022-10-06T16:43:30.508Z,99489.22
2022-10-06T16:46:33.700Z,99497.41
2022-10-06T16:49:36.328Z,99499.56
2022-10-06T16:52:40.734Z,99502.84
2022-10-06T16:55:43.654Z,99500.69
2022-10-06T16:58:48.438Z,99505.28
2022-10-06T17:01:51.706Z,99499.59
2022-10-06T17:04:54.386Z,99501.78
2022-10-06T17:07:59.212Z,99500.44
2022-10-06T17:11:04.246Z,99506.13
2022-10-06T17:14:06.888Z,99497.19
2022-10-06T17:17:09.732Z,99507.19
2022-10-06T17:20:13.874Z,99506.13
2022-10-06T17:23:17.851Z,99507.47
2022-10-06T17:26:22.250Z,99505.03
2022-10-06T17:29:26.567Z,99503.94
2022-10-06T17:32:29.262Z,99505.84
2022-10-06T17:35:31.997Z,99512.91
2022-10-06T17:38:41.742Z,99512.91
2022-10-06T17:41:46.555Z,99513.16
2022-10-06T17:44:54.591Z,99514.78
2022-10-06T17:48:03.661Z,99509.91
2022-10-06T17:51:09.600Z,99516.44
2022-10-06T17:54:36.462Z,99524.53
2022-10-06T17:57:56.816Z,99517.78
2022-10-06T18:01:05.329Z,99522.66
2022-10-06T18:04:31.387Z,99518.59
2022-10-06T18:08:05.262Z,99511.56
2022-10-06T18:11:35.857Z,99512.38
2022-10-06T18:14:38.563Z,99511.28
2022-10-06T18:17:42.286Z,99513.19
2022-10-06T18:20:46.116Z,99515.34
2022-10-06T18:23:53.349Z,99504.81
2022-10-06T18:27:16.094Z,99501.53
2022-10-06T18:30:59.023Z,99500.50
2022-10-06T18:37:29.401Z,99505.13
2022-10-06T18:44:09.383Z,99507.78
2022-10-06T18:47:32.305Z,99510.00
2022-10-06T18:50:35.200Z,99510.50
2022-10-06T18:53:45.647Z,99508.91
2022-10-06T18:56:49.922Z,99504.03
2022-10-06T18:59:54.249Z,99501.59
2022-10-06T19:02:57.008Z,99505.09
2022-10-06T19:06:00.102Z,99495.59
2022-10-06T19:09:04.526Z,99502.06
2022-10-06T19:12:20.223Z,99509.59
2022-10-06T19:15:24.279Z,99503.38
2022-10-06T19:18:38.163Z,99508.19
2022-10-06T19:21:42.219Z,99507.34
2022-10-06T19:24:48.273Z,99506.50
2022-10-06T19:27:51.072Z,99507.03
2022-10-06T19:30:59.492Z,99501.34
2022-10-06T19:34:04.210Z,99509.69
2022-10-06T19:37:07.263Z,99510.75
2022-10-06T19:40:11.263Z,99506.41
2022-10-06T19:43:13.158Z,99507.22
2022-10-06T19:46:17.457Z,99508.84
2022-10-06T19:49:23.589Z,99512.91
2022-10-06T19:52:26.613Z,99516.91
2022-10-06T19:55:29.417Z,99513.94
2022-10-06T19:58:32.808Z,99516.09
2022-10-06T20:01:36.792Z,99511.19
2022-10-06T20:04:40.097Z,99512.50
2022-10-06T20:07:45.253Z,99506.00
2022-10-06T20:10:48.136Z,99505.44
2022-10-06T20:13:51.617Z,99509.47
2022-10-06T20:16:57.417Z,99513.75
2022-10-06T20:20:00.279Z,99514.25
2022-10-06T20:23:03.119Z,99512.63
2022-10-06T20:26:11.168Z,99512.59
2022-10-06T20:29:15.621Z,99506.88
2022-10-06T20:32:19.618Z,99513.66
2022-10-06T20:35:22.328Z,99512.25
2022-10-06T20:38:45.058Z,99506.28
2022-10-06T20:41:46.798Z,99505.66
2022-10-06T20:44:49.414Z,99505.94
2022-10-06T20:47:53.387Z,99498.41
2022-10-06T20:51:27.618Z,99505.19
2022-10-06T20:54:34.869Z,99492.00
2022-10-06T20:57:37.791Z,99492.03
2022-10-06T21:00:41.102Z,99496.91
2022-10-06T21:03:46.560Z,99493.19
2022-10-06T21:06:50.808Z,99494.28
2022-10-06T21:09:53.928Z,99489.94
2022-10-06T21:12:56.496Z,99495.59
2022-10-06T21:15:59.817Z,99493.97
2022-10-06T21:19:04.863Z,99492.94
2022-10-06T21:22:07.603Z,99494.84
2022-10-06T21:25:10.565Z,99489.47
2022-10-06T21:28:14.284Z,99485.44
2022-10-06T21:31:18.550Z,99483.31
2022-10-06T21:34:22.632Z,99480.63
2022-10-06T21:37:25.227Z,99478.19
2022-10-06T21:40:27.833Z,99470.94
2022-10-06T21:43:30.517Z,99464.19
2022-10-06T21:46:35.311Z,99470.41
2022-10-06T21:49:39.601Z,99469.09
2022-10-06T21:52:42.192Z,99468.03
2022-10-06T21:55:44.942Z,99460.44
2022-10-06T21:58:51.685Z,99456.66
2022-10-06T22:01:54.318Z,99452.91
2022-10-06T22:04:58.312Z,99451.53
2022-10-06T22:08:01.039Z,99456.38
2022-10-06T22:11:05.280Z,99447.75
2022-10-06T22:14:09.436Z,99437.78
2022-10-06T22:17:12.299Z,99442.06
2022-10-06T22:20:16.652Z,99439.59
2022-10-06T22:23:19.475Z,99450.38
2022-10-06T22:26:22.461Z,99436.88
2022-10-06T22:29:25.227Z,99437.38
2022-10-06T22:32:27.843Z,99436.31
2022-10-06T22:35:31.868Z,99434.66
2022-10-06T22:38:35.368Z,99433.31
2022-10-06T22:41:38.419Z,99436.78
2022-10-06T22:44:41.015Z,99425.19
2022-10-06T22:47:43.793Z,99434.06
2022-10-06T22:50:48.732Z,99423.53
2022-10-06T22:53:57.264Z,99421.13
2022-10-06T22:57:00.742Z,99421.94
2022-10-06T23:00:03.379Z,99407.66
2022-10-06T23:03:06.174Z,99405.72
2022-10-06T23:06:12.980Z,99401.66
2022-10-06T23:09:15.804Z,99396.59
2022-10-06T23:12:18.403Z,99397.09
2022-10-06T23:15:21.156Z,99381.75
2022-10-06T23:18:23.776Z,99386.31
2022-10-06T23:21:28.047Z,99382.56
2022-10-06T23:24:30.664Z,99382.00
2022-10-06T23:27:33.588Z,99376.06
2022-10-06T23:30:36.914Z,99372.81
2022-10-06T23:33:39.871Z,99371.47
2022-10-06T23:36:43.833Z,99371.19
2022-10-06T23:39:46.444Z,99363.13
2022-10-06T23:42:49.235Z,99370.13
2022-10-06T23:45:52.094Z,99376.03
2022-10-06T23:48:54.735Z,99373.34
2022-10-06T23:51:58.685Z,99371.75
2022-10-06T23:55:01.288Z,99365.59
2022-10-06T23:58:03.908Z,99369.38
